createdAt,value
2019-05-17T00:01:57.689Z,33.30
2019-05-17T00:04:27.049Z,28.13
2019-05-17T00:06:57.019Z,20.77
2019-05-17T00:09:26.757Z,22.83
2019-05-17T00:11:56.865Z,24.47
2019-05-17T00:14:27.147Z,22.05
2019-05-17T00:16:57.408Z,26.70
2019-05-17T00:19:26.448Z,26.00
2019-05-17T00:21:56.635Z,28.30
2019-05-17T00:24:26.559Z,25.77
2019-05-17T00:26:55.529Z,29.07
2019-05-17T00:29:27.682Z,26.90
2019-05-17T00:31:56.895Z,29.30
2019-05-17T00:34:27.035Z,28.50
2019-05-17T00:36:57.443Z,28.07
2019-05-17T00:39:27.213Z,28.50
2019-05-17T00:41:57.340Z,29.63
2019-05-17T00:44:27.188Z,28.30
2019-05-17T00:46:58.898Z,28.23
2019-05-17T00:49:26.642Z,32.93
2019-05-17T00:51:56.739Z,31.23
2019-05-17T00:54:26.910Z,28.37
2019-05-17T00:56:56.697Z,34.33
2019-05-17T00:59:26.309Z,27.90
2019-05-17T01:01:56.209Z,29.13
2019-05-17T01:04:27.470Z,24.92
2019-05-17T01:06:56.355Z,29.40
2019-05-17T01:09:27.142Z,31.77
2019-05-17T01:11:56.695Z,31.87
2019-05-17T01:14:26.595Z,30.80
2019-05-17T01:16:56.478Z,28.65
2019-05-17T01:19:26.983Z,28.45
2019-05-17T01:21:56.838Z,31.87
2019-05-17T01:24:27.406Z,27.55
2019-05-17T01:26:57.410Z,31.93
2019-05-17T01:29:26.870Z,33.88
2019-05-17T01:31:57.138Z,31.77
2019-05-17T01:34:27.316Z,31.50
2019-05-17T01:36:57.274Z,31.15
2019-05-17T01:39:26.874Z,31.23
2019-05-17T01:41:57.339Z,39.65
2019-05-17T01:44:27.237Z,33.23
2019-05-17T01:46:59.102Z,34.08
2019-05-17T01:49:28.037Z,34.08
2019-05-17T01:51:56.997Z,27.40
2019-05-17T01:54:26.870Z,28.83
2019-05-17T01:56:56.664Z,32.08
2019-05-17T01:59:26.787Z,31.70
2019-05-17T02:02:02.774Z,30.40
2019-05-17T02:04:31.719Z,33.27
2019-05-17T02:07:00.660Z,27.48
2019-05-17T02:09:37.387Z,31.77
2019-05-17T02:12:00.282Z,29.15
2019-05-17T02:14:29.322Z,28.73
2019-05-17T02:16:58.161Z,31.95
2019-05-17T02:19:27.009Z,30.00
2019-05-17T02:21:57.014Z,35.28
2019-05-17T02:24:27.518Z,33.55
2019-05-17T02:26:57.057Z,29.95
2019-05-17T02:29:26.135Z,29.75
2019-05-17T02:31:55.135Z,37.93
2019-05-17T02:34:24.066Z,28.12
2019-05-17T02:36:53.485Z,37.17
2019-05-17T02:39:23.237Z,31.77
2019-05-17T02:41:53.320Z,34.53
2019-05-17T02:44:23.558Z,34.15
2019-05-17T02:46:53.752Z,41.37
2019-05-17T02:49:24.869Z,36.58
2019-05-17T02:51:53.706Z,38.10
2019-05-17T02:54:23.561Z,37.67
2019-05-17T02:56:53.875Z,42.62
2019-05-17T02:59:23.327Z,41.13
2019-05-17T03:01:52.858Z,44.50
2019-05-17T03:04:23.654Z,45.90
2019-05-17T03:06:53.402Z,44.45
2019-05-17T03:09:22.990Z,41.40
2019-05-17T03:11:56.650Z,42.90
2019-05-17T03:14:23.095Z,47.25
2019-05-17T03:16:53.700Z,40.87
2019-05-17T03:19:23.555Z,41.45
2019-05-17T03:21:53.567Z,42.27
2019-05-17T03:24:23.968Z,44.08
2019-05-17T03:26:52.963Z,42.20
2019-05-17T03:29:22.649Z,42.00
2019-05-17T03:31:59.296Z,44.65
2019-05-17T03:34:26.346Z,50.33
2019-05-17T03:36:56.384Z,42.50
2019-05-17T03:39:25.109Z,38.58
2019-05-17T03:41:54.043Z,48.23
2019-05-17T03:44:22.983Z,47.93
2019-05-17T03:46:53.170Z,46.28
2019-05-17T03:49:22.585Z,53.08
2019-05-17T03:51:53.212Z,49.42
2019-05-17T03:54:22.805Z,45.38
2019-05-17T03:56:53.315Z,53.75
2019-05-17T03:59:24.256Z,45.70
2019-05-17T04:01:53.163Z,52.05
2019-05-17T04:04:22.920Z,53.78
2019-05-17T04:06:52.609Z,56.02
2019-05-17T04:09:22.421Z,51.70
2019-05-17T04:11:53.643Z,47.80
2019-05-17T04:14:22.603Z,48.65
2019-05-17T04:16:53.613Z,49.48
2019-05-17T04:19:23.067Z,43.02
2019-05-17T04:21:53.613Z,48.93
2019-05-17T04:37:56.661Z,35.10
2019-05-17T04:40:35.210Z,38.40
2019-05-17T04:47:52.928Z,35.73
2019-05-17T04:51:39.519Z,36.50
2019-05-17T04:55:14.556Z,41.13
2019-05-17T04:58:33.488Z,34.57
2019-05-17T05:01:32.952Z,45.10
2019-05-17T05:04:57.851Z,36.87
2019-05-17T05:12:01.002Z,34.40
2019-05-17T05:18:54.848Z,35.77
2019-05-17T05:25:54.193Z,36.93
2019-05-17T05:29:21.720Z,34.90
2019-05-17T05:31:56.158Z,36.03
2019-05-17T05:35:08.135Z,40.60
2019-05-17T05:38:31.792Z,34.43
2019-05-17T05:42:22.027Z,37.60
2019-05-17T06:00:47.632Z,32.07
2019-05-17T06:15:43.733Z,31.47
2019-05-17T06:16:02.387Z,31.23
2019-05-17T06:22:48.766Z,32.03
2019-05-17T06:26:03.314Z,33.50
2019-05-17T06:28:46.484Z,31.27
2019-05-17T06:31:27.701Z,35.40
2019-05-17T06:37:42.525Z,33.20
2019-05-17T06:40:17.765Z,34.87
2019-05-17T06:42:55.220Z,32.83
2019-05-17T06:45:24.828Z,39.93
2019-05-17T06:47:54.118Z,38.30
2019-05-17T06:50:24.426Z,40.70
2019-05-17T06:52:53.805Z,36.53
2019-05-17T06:55:24.281Z,32.00
2019-05-17T06:57:53.505Z,35.43
2019-05-17T07:00:24.051Z,35.70
2019-05-17T07:02:53.269Z,39.70
2019-05-17T07:05:30.087Z,34.10
2019-05-17T07:08:00.233Z,31.73
2019-05-17T07:10:40.229Z,31.67
2019-05-17T07:13:10.710Z,30.03
2019-05-17T07:15:47.160Z,34.43
2019-05-17T07:18:12.113Z,35.27
2019-05-17T07:20:41.993Z,32.00
2019-05-17T07:23:12.884Z,36.63
2019-05-17T07:25:50.419Z,36.17
2019-05-17T07:28:42.976Z,32.50
2019-05-17T07:31:02.418Z,33.03
2019-05-17T07:33:32.337Z,34.30
2019-05-17T07:36:03.372Z,33.97
2019-05-17T07:38:33.347Z,32.67
2019-05-17T07:41:02.425Z,34.50
2019-05-17T07:43:34.070Z,35.20
2019-05-17T07:46:06.242Z,31.80
2019-05-17T07:48:36.375Z,32.80
2019-05-17T07:51:06.141Z,28.90
2019-05-17T07:53:40.047Z,35.40
2019-05-17T08:03:53.683Z,30.70
2019-05-17T08:06:22.751Z,31.27
2019-05-17T08:08:51.778Z,34.37
2019-05-17T08:11:20.810Z,31.97
2019-05-17T08:13:50.520Z,31.17
2019-05-17T08:16:19.702Z,27.90
2019-05-17T08:18:49.720Z,29.57
2019-05-17T08:21:19.869Z,34.40
2019-05-17T08:23:50.620Z,32.60
2019-05-17T08:26:20.103Z,31.80
2019-05-17T08:28:49.930Z,28.30
2019-05-17T08:31:21.074Z,28.23
2019-05-17T08:33:51.103Z,28.80
2019-05-17T08:36:21.131Z,28.33
2019-05-17T08:38:53.157Z,31.53
2019-05-17T08:41:22.174Z,32.97
2019-05-17T08:43:51.595Z,28.53
2019-05-17T08:46:20.670Z,24.23
2019-05-17T08:48:50.682Z,27.70
2019-05-17T08:51:22.534Z,26.20
2019-05-17T08:53:51.547Z,26.87
2019-05-17T08:56:21.513Z,28.80
2019-05-17T08:58:50.453Z,26.03
2019-05-17T09:01:19.747Z,23.10
2019-05-17T09:03:50.633Z,27.10
2019-05-17T09:06:19.934Z,26.87
2019-05-17T09:08:49.986Z,23.60
2019-05-17T09:11:19.677Z,25.10
2019-05-17T09:13:58.022Z,23.87
2019-05-17T09:16:19.767Z,22.53
2019-05-17T09:18:50.225Z,23.67
2019-05-17T09:21:21.989Z,27.73
2019-05-17T09:23:51.218Z,22.80
2019-05-17T09:26:21.264Z,21.20
2019-05-17T09:28:50.281Z,21.03
2019-05-17T09:31:20.433Z,22.07
2019-05-17T09:33:49.768Z,25.77
2019-05-17T09:36:20.533Z,23.07
2019-05-17T09:38:49.702Z,25.70
2019-05-17T09:41:20.031Z,23.23
2019-05-17T09:43:49.702Z,19.90
2019-05-17T09:46:19.663Z,23.77
2019-05-17T09:48:50.419Z,19.93
2019-05-17T09:51:19.769Z,22.47
2019-05-17T09:53:49.610Z,21.40
2019-05-17T09:56:20.665Z,20.33
2019-05-17T09:58:49.877Z,19.70
2019-05-17T10:01:19.630Z,24.77
2019-05-17T10:03:50.534Z,20.00
2019-05-17T10:06:20.044Z,20.83
2019-05-17T10:08:49.586Z,23.20
2019-05-17T10:11:20.314Z,21.83
2019-05-17T10:13:49.928Z,20.63
2019-05-17T10:16:20.323Z,22.83
2019-05-17T10:18:49.543Z,21.40
2019-05-17T10:21:19.861Z,21.10
2019-05-17T10:23:49.689Z,22.23
2019-05-17T10:26:21.267Z,26.33
2019-05-17T10:28:51.611Z,20.97
2019-05-17T10:31:21.822Z,21.43
2019-05-17T10:33:50.794Z,19.03
2019-05-17T10:36:20.331Z,21.17
2019-05-17T10:38:50.206Z,22.50
2019-05-17T10:41:19.889Z,23.60
2019-05-17T10:43:50.090Z,21.47
2019-05-17T10:46:20.706Z,17.87
2019-05-17T10:48:50.159Z,20.73
2019-05-17T10:51:20.310Z,18.87
2019-05-17T10:53:51.350Z,19.30
2019-05-17T10:56:23.396Z,24.10
2019-05-17T10:58:51.062Z,17.27
2019-05-17T11:01:20.189Z,19.23
2019-05-17T11:03:50.270Z,16.97
2019-05-17T11:06:20.466Z,21.73
2019-05-17T11:08:50.124Z,19.33
2019-05-17T11:11:20.036Z,19.80
2019-05-17T11:13:49.322Z,21.33
2019-05-17T11:16:18.549Z,16.57
2019-05-17T11:18:47.583Z,22.27
2019-05-17T11:21:17.635Z,24.10
2019-05-17T11:23:47.670Z,20.63
2019-05-17T11:26:17.697Z,19.37
2019-05-17T11:28:46.735Z,17.93
2019-05-17T11:31:15.690Z,15.53
2019-05-17T11:33:44.703Z,14.73
2019-05-17T11:36:13.650Z,21.40
2019-05-17T11:38:42.531Z,18.33
2019-05-17T11:41:21.111Z,15.07
2019-05-17T11:43:42.255Z,18.20
2019-05-17T11:46:11.291Z,19.80
2019-05-17T11:48:40.338Z,18.37
2019-05-17T11:51:09.370Z,16.43
2019-05-17T11:53:38.310Z,16.40
2019-05-17T11:56:08.330Z,16.50
2019-05-17T11:58:37.402Z,16.83
2019-05-17T12:01:06.432Z,19.47
2019-05-17T12:03:41.683Z,16.37
2019-05-17T12:06:10.787Z,17.77
2019-05-17T12:08:40.138Z,17.17
2019-05-17T12:11:10.931Z,14.80
2019-05-17T12:13:43.376Z,17.00
2019-05-17T12:16:10.663Z,16.63
2019-05-17T12:18:39.570Z,14.87
2019-05-17T12:21:09.459Z,14.90
2019-05-17T12:23:38.418Z,16.57
2019-05-17T12:26:07.459Z,15.60
2019-05-17T12:28:36.490Z,17.40
2019-05-17T12:31:07.522Z,16.60
2019-05-17T12:33:36.478Z,16.73
2019-05-17T12:36:05.826Z,15.67
2019-05-17T12:38:35.818Z,17.43
2019-05-17T12:41:04.855Z,14.70
2019-05-17T12:43:33.788Z,14.53
2019-05-17T12:46:02.748Z,12.83
2019-05-17T12:48:31.773Z,14.87
2019-05-17T12:51:00.719Z,13.87
2019-05-17T12:53:30.617Z,14.20
2019-05-17T12:55:59.566Z,12.97
2019-05-17T12:58:28.618Z,12.07
2019-05-17T13:01:00.488Z,13.10
2019-05-17T13:03:29.514Z,13.03
2019-05-17T13:05:58.471Z,14.30
2019-05-17T13:08:29.867Z,13.17
2019-05-17T13:10:58.892Z,16.60
2019-05-17T13:13:28.206Z,13.77
2019-05-17T13:15:57.143Z,14.40
2019-05-17T13:18:26.167Z,12.07
2019-05-17T13:20:55.206Z,17.40
2019-05-17T13:23:24.274Z,13.00
2019-05-17T13:25:53.308Z,14.10
2019-05-17T13:28:22.169Z,12.97
2019-05-17T13:30:51.196Z,13.17
2019-05-17T13:33:21.146Z,14.27
2019-05-17T13:35:50.150Z,11.37
2019-05-17T13:38:20.195Z,16.10
2019-05-17T13:40:51.185Z,13.90
2019-05-17T13:43:20.208Z,11.20
2019-05-17T13:45:49.300Z,11.07
2019-05-17T13:48:18.243Z,13.37
2019-05-17T13:50:51.439Z,12.87
2019-05-17T13:53:18.035Z,11.57
2019-05-17T13:55:47.064Z,13.60
2019-05-17T13:58:16.959Z,11.70
2019-05-17T14:00:46.068Z,11.53
2019-05-17T14:03:16.107Z,13.13
2019-05-17T14:05:45.054Z,13.23
2019-05-17T14:08:14.008Z,13.07
2019-05-17T14:10:43.046Z,12.53
2019-05-17T14:13:12.070Z,12.20
2019-05-17T14:15:41.097Z,12.93
2019-05-17T14:18:09.963Z,14.83
2019-05-17T14:20:40.016Z,13.17
2019-05-17T14:23:09.024Z,13.53
2019-05-17T14:25:38.551Z,11.90
2019-05-17T14:28:11.106Z,12.30
2019-05-17T14:30:38.422Z,12.97
2019-05-17T14:33:07.442Z,12.17
2019-05-17T14:35:36.427Z,13.00
2019-05-17T14:38:05.454Z,11.10
2019-05-17T14:41:04.056Z,11.20
2019-05-17T14:43:06.271Z,9.70
2019-05-17T14:45:36.219Z,8.90
2019-05-17T14:48:05.477Z,10.30
2019-05-17T14:50:34.488Z,8.47
2019-05-17T14:53:03.503Z,8.70
2019-05-17T14:55:33.546Z,9.17
2019-05-17T14:58:02.623Z,10.00
2019-05-17T15:00:31.638Z,9.47
2019-05-17T15:03:00.704Z,9.43
2019-05-17T15:05:29.629Z,10.90
2019-05-17T15:07:58.600Z,10.17
2019-05-17T15:10:27.605Z,11.23
2019-05-17T15:12:56.564Z,11.00
2019-05-17T15:15:26.366Z,12.00
2019-05-17T15:17:55.852Z,10.07
2019-05-17T15:20:24.858Z,11.93
2019-05-17T15:22:53.806Z,9.80
2019-05-17T15:25:23.755Z,12.57
2019-05-17T15:27:53.767Z,9.70
2019-05-17T15:30:22.707Z,13.20
2019-05-17T15:32:51.748Z,11.80
2019-05-17T15:35:20.733Z,9.80
2019-05-17T15:37:49.683Z,8.80
2019-05-17T15:40:18.727Z,9.03
2019-05-17T15:42:48.846Z,9.17
2019-05-17T15:45:17.887Z,13.23
2019-05-17T15:47:46.826Z,10.67
2019-05-17T15:50:17.067Z,9.80
2019-05-17T15:52:46.108Z,10.70
2019-05-17T15:55:16.601Z,11.10
2019-05-17T15:57:45.548Z,8.90
2019-05-17T16:00:20.378Z,9.80
2019-05-17T16:02:49.705Z,9.53
2019-05-17T16:05:18.714Z,10.67
2019-05-17T16:07:47.938Z,10.53
2019-05-17T16:10:17.181Z,9.40
2019-05-17T16:13:01.061Z,11.67
2019-05-17T16:15:18.393Z,10.10
2019-05-17T16:17:47.411Z,9.37
2019-05-17T16:20:17.076Z,10.80
2019-05-17T16:22:46.196Z,9.47
2019-05-17T16:25:15.377Z,10.10
2019-05-17T16:27:45.423Z,9.60
2019-05-17T16:30:14.846Z,10.00
2019-05-17T16:32:43.711Z,10.57
2019-05-17T16:35:12.860Z,12.17
2019-05-17T16:37:41.906Z,9.73
2019-05-17T16:40:11.350Z,9.50
2019-05-17T16:42:40.302Z,10.13
2019-05-17T16:45:09.495Z,10.30
2019-05-17T16:47:38.554Z,9.13
2019-05-17T16:50:07.933Z,12.27
2019-05-17T16:52:36.956Z,9.73
2019-05-17T16:55:06.233Z,9.20
2019-05-17T16:57:36.253Z,10.00
2019-05-17T17:00:08.576Z,12.23
2019-05-17T17:02:37.470Z,10.83
2019-05-17T17:05:06.658Z,9.90
2019-05-17T17:07:36.520Z,10.20
2019-05-17T17:10:05.775Z,11.67
2019-05-17T17:12:34.895Z,9.67
2019-05-17T17:15:05.294Z,10.23
2019-05-17T17:17:35.499Z,10.97
2019-05-17T17:20:04.778Z,12.10
2019-05-17T17:22:33.963Z,10.83
2019-05-17T17:25:03.081Z,12.20
2019-05-17T17:27:33.355Z,12.53
2019-05-17T17:30:02.594Z,11.00
2019-05-17T17:32:32.758Z,13.60
2019-05-17T17:35:04.053Z,9.90
2019-05-17T17:37:33.157Z,10.67
2019-05-17T17:40:02.289Z,10.13
2019-05-17T17:42:31.394Z,11.67
2019-05-17T17:45:01.508Z,9.33
2019-05-17T17:47:31.601Z,9.80
2019-05-17T17:50:00.687Z,10.37
2019-05-17T17:52:29.800Z,12.07
2019-05-17T17:54:58.930Z,10.00
2019-05-17T17:57:28.997Z,12.50
2019-05-17T17:59:58.143Z,12.13
2019-05-17T18:02:27.211Z,10.93
2019-05-17T18:04:56.285Z,10.00
2019-05-17T18:07:25.442Z,12.17
2019-05-17T18:09:54.435Z,9.33
2019-05-17T18:12:25.518Z,10.43
2019-05-17T18:14:54.727Z,9.80
2019-05-17T18:17:23.808Z,16.40
2019-05-17T18:19:52.906Z,10.90
2019-05-17T18:22:22.006Z,11.93
2019-05-17T18:24:51.590Z,11.60
2019-05-17T18:27:21.059Z,13.40
2019-05-17T18:29:51.419Z,15.63
2019-05-17T18:32:20.768Z,10.67
2019-05-17T18:34:51.126Z,10.60
2019-05-17T18:37:22.388Z,12.27
2019-05-17T18:39:51.773Z,12.63
2019-05-17T18:42:21.987Z,13.00
2019-05-17T18:44:51.141Z,13.87
2019-05-17T18:47:23.404Z,12.47
2019-05-17T18:49:53.703Z,12.20
2019-05-17T18:52:23.988Z,11.70
2019-05-17T18:54:53.179Z,13.97
2019-05-17T18:57:22.452Z,12.50
2019-05-17T18:59:51.967Z,13.80
2019-05-17T19:02:22.068Z,10.40
2019-05-17T19:04:52.311Z,12.60
2019-05-17T19:07:22.517Z,12.53
2019-05-17T19:09:52.714Z,13.57
2019-05-17T19:12:29.733Z,11.70
2019-05-17T19:15:00.719Z,11.27
2019-05-17T19:17:31.070Z,12.40
2019-05-17T19:20:00.245Z,12.70
2019-05-17T19:22:30.414Z,12.90
2019-05-17T19:25:00.599Z,12.17
2019-05-17T19:27:30.751Z,11.63
2019-05-17T19:29:59.881Z,12.37
2019-05-17T19:32:35.382Z,11.70
2019-05-17T19:35:04.836Z,13.00
2019-05-17T19:37:33.826Z,10.93
2019-05-17T19:40:02.887Z,10.40
2019-05-17T19:42:31.877Z,11.97
2019-05-17T19:45:02.467Z,11.23
2019-05-17T19:47:32.613Z,11.87
2019-05-17T19:50:01.650Z,13.47
2019-05-17T19:52:32.742Z,11.27
2019-05-17T19:55:01.716Z,16.53
2019-05-17T19:57:30.655Z,12.83
2019-05-17T19:59:59.657Z,11.57
2019-05-17T20:02:28.760Z,12.83
2019-05-17T20:04:57.749Z,13.53
2019-05-17T20:07:26.761Z,11.37
2019-05-17T20:09:56.040Z,15.53
2019-05-17T20:12:25.108Z,15.57
2019-05-17T20:14:54.091Z,14.07
2019-05-17T20:17:23.193Z,13.03
2019-05-17T20:19:52.336Z,14.27
2019-05-17T20:22:21.277Z,14.27
2019-05-17T20:24:50.286Z,14.43
2019-05-17T20:27:19.441Z,12.73
2019-05-17T20:29:48.510Z,13.37
2019-05-17T20:32:17.397Z,14.30
2019-05-17T20:34:48.509Z,12.83
2019-05-17T20:37:17.536Z,15.23
2019-05-17T20:39:47.628Z,15.17
2019-05-17T20:42:16.623Z,16.90
2019-05-17T20:44:45.616Z,15.17
2019-05-17T20:47:15.553Z,16.77
2019-05-17T20:49:44.530Z,16.80
2019-05-17T20:52:13.505Z,17.30
2019-05-17T20:54:44.545Z,16.80
2019-05-17T20:57:13.635Z,18.23
2019-05-17T20:59:44.654Z,16.60
2019-05-17T21:02:14.549Z,18.73
2019-05-17T21:04:43.558Z,15.30
2019-05-17T21:07:12.604Z,18.63
2019-05-17T21:09:44.133Z,21.60
2019-05-17T21:12:13.350Z,18.07
2019-05-17T21:14:42.411Z,16.40
2019-05-17T21:17:13.793Z,16.40
2019-05-17T21:19:43.286Z,16.00
2019-05-17T21:22:15.197Z,19.07
2019-05-17T21:24:45.460Z,19.03
2019-05-17T21:27:14.551Z,17.70
2019-05-17T21:29:44.758Z,22.37
2019-05-17T21:32:13.883Z,16.73
2019-05-17T21:34:42.780Z,18.87
2019-05-17T21:37:11.789Z,17.60
2019-05-17T21:39:42.064Z,17.80
2019-05-17T21:42:11.131Z,14.80
2019-05-17T21:44:40.090Z,14.93
2019-05-17T21:47:09.242Z,14.23
2019-05-17T21:49:38.309Z,14.87
2019-05-17T21:52:07.321Z,17.97
2019-05-17T21:54:38.329Z,14.47
2019-05-17T21:57:07.301Z,14.83
2019-05-17T21:59:36.395Z,14.40
2019-05-17T22:02:05.642Z,16.70
2019-05-17T22:04:34.676Z,14.63
2019-05-17T22:07:05.049Z,15.93
2019-05-17T22:09:34.013Z,17.20
2019-05-17T22:12:08.595Z,13.97
2019-05-17T22:14:37.637Z,14.10
2019-05-17T22:17:06.629Z,18.73
2019-05-17T22:19:41.652Z,14.63
2019-05-17T22:22:10.658Z,14.53
2019-05-17T22:24:40.668Z,17.97
2019-05-17T22:27:09.681Z,13.57
2019-05-17T22:29:38.622Z,17.10
2019-05-17T22:32:07.573Z,13.40
2019-05-17T22:34:36.548Z,14.30
2019-05-17T22:37:05.600Z,12.27
2019-05-17T22:39:34.617Z,14.73
2019-05-17T22:42:03.640Z,13.97
2019-05-17T22:44:32.606Z,13.20
2019-05-17T22:47:01.611Z,16.70
2019-05-17T22:49:30.589Z,13.13
2019-05-17T22:51:59.672Z,15.17
2019-05-17T22:54:28.739Z,14.20
2019-05-17T22:56:57.864Z,14.93
2019-05-17T22:59:26.877Z,15.57
2019-05-17T23:01:55.867Z,17.50
2019-05-17T23:04:24.829Z,13.50
2019-05-17T23:06:53.872Z,14.40
2019-05-17T23:09:22.841Z,16.10
2019-05-17T23:11:51.754Z,15.20
2019-05-17T23:14:20.647Z,15.20
2019-05-17T23:16:51.996Z,12.80
2019-05-17T23:19:20.341Z,12.87
2019-05-17T23:21:49.458Z,13.43
2019-05-17T23:24:18.515Z,17.60
2019-05-17T23:26:49.462Z,13.07
2019-05-17T23:29:19.669Z,13.10
2019-05-17T23:31:48.762Z,13.40
2019-05-17T23:34:17.709Z,13.67
2019-05-17T23:36:46.765Z,13.30
2019-05-17T23:39:15.879Z,12.80
2019-05-17T23:41:44.871Z,12.03
2019-05-17T23:44:13.941Z,12.00
2019-05-17T23:46:43.019Z,14.70
2019-05-17T23:49:11.986Z,11.60
2019-05-17T23:51:42.039Z,14.43
2019-05-17T23:54:11.130Z,11.93
2019-05-17T23:56:41.552Z,12.60
2019-05-17T23:59:10.665Z,13.70
